Time;durP1;ratioP1;P1;durP2;ratioP2;P2;SDS_P1;SDS_P2;PMS_P1;PMS_P2;Temp;Humidity;BMP_temperature;BMP_pressure;BME280_temperature;BME280_humidity;BME280_pressure;Samples;Min_cycle;Max_cycle;Signal;HPM_P1;HPM_P2
2022/05/28 00:02:05;;;;;;;15.53;4.43;;;;;;;;;;5032589;28;20195;-49
2022/05/28 00:04:31;;;;;;;30.17;6.97;;;9.60;95.10;;;;;;5042499;28;20257;-50
2022/05/28 00:06:57;;;;;;;39.27;8.83;;;;;;;;;;5032247;28;20223;-49
2022/05/28 00:09:22;;;;;;;38.37;8.60;;;9.90;96.50;;;;;;5031994;28;20636;-50
2022/05/28 00:11:48;;;;;;;31.97;7.53;;;;;;;;;;5045754;28;20226;-48
2022/05/28 00:14:14;;;;;;;63.27;14.13;;;9.90;90.40;;;;;;5032195;28;20180;-50
2022/05/28 00:16:41;;;;;;;43.97;9.53;;;;;;;;;;5036348;28;20315;-50
2022/05/28 00:19:07;;;;;;;15.30;3.83;;;9.90;99.90;;;;;;5026550;28;20274;-49
2022/05/28 00:21:34;;;;;;;43.30;9.47;;;9.50;99.90;;;;;;5031087;28;20224;-50
2022/05/28 00:24:00;;;;;;;45.50;10.43;;;9.60;99.90;;;;;;5041110;28;20688;-52
2022/05/28 00:26:26;;;;;;;35.00;8.20;;;9.80;99.90;;;;;;5037296;28;20256;-50
2022/05/28 00:28:52;;;;;;;46.13;9.90;;;9.80;99.90;;;;;;5023491;28;20256;-50
2022/05/28 00:31:17;;;;;;;41.10;9.47;;;9.90;99.90;;;;;;5051498;28;20227;-50
2022/05/28 00:33:44;;;;;;;49.67;10.87;;;;;;;;;;5033863;28;20228;-49
2022/05/28 00:36:10;;;;;;;45.57;10.00;;;9.70;99.90;;;;;;5031710;28;20208;-50
2022/05/28 00:38:37;;;;;;;15.03;4.03;;;9.40;99.90;;;;;;5032025;28;20599;-49
2022/05/28 00:41:03;;;;;;;36.17;8.23;;;9.50;99.90;;;;;;5043994;28;20216;-50
2022/05/28 00:43:29;;;;;;;33.77;7.87;;;9.70;99.90;;;;;;5031317;28;20274;-50
2022/05/28 00:46:13;;;;;;;32.87;7.63;;;9.50;99.90;;;;;;5038631;28;20230;-49
2022/05/28 00:48:45;;;;;;;37.77;8.43;;;9.30;99.90;;;;;;5031249;28;20726;-50
2022/05/28 00:51:16;;;;;;;32.50;7.57;;;9.50;99.90;;;;;;5030998;28;20231;-50
2022/05/28 00:53:42;;;;;;;35.37;8.93;;;;;;;;;;5031718;28;20180;-49
2022/05/28 00:56:08;;;;;;;33.57;8.00;;;;;;;;;;5014431;28;20275;-49
2022/05/28 00:58:34;;;;;;;30.77;7.80;;;;;;;;;;5029393;28;20278;-49
2022/05/28 01:01:02;;;;;;;35.67;8.57;;;9.30;99.90;;;;;;5031374;28;20715;-49
2022/05/28 01:03:43;;;;;;;31.63;7.57;;;9.20;99.90;;;;;;5026693;28;20285;-50
2022/05/28 01:06:22;;;;;;;26.33;6.33;;;9.30;99.90;;;;;;5030918;28;20216;-49
2022/05/28 01:08:50;;;;;;;15.80;4.87;;;9.20;99.90;;;;;;5030830;28;20196;-50
2022/05/28 01:11:29;;;;;;;30.70;12.70;;;9.40;99.90;;;;;;5039648;28;20266;-50
2022/05/28 01:14:10;;;;;;;58.47;26.80;;;9.00;99.90;;;;;;5036384;28;20216;-49
2022/05/28 01:16:41;;;;;;;42.53;17.77;;;9.30;99.90;;;;;;5029522;28;20585;-50
2022/05/28 01:19:30;;;;;;;39.77;13.27;;;9.20;99.90;;;;;;5030906;28;20331;-49
2022/05/28 01:21:56;;;;;;;48.73;16.43;;;9.20;99.90;;;;;;5030481;28;20222;-50
2022/05/28 01:24:43;;;;;;;42.50;14.47;;;9.20;99.90;;;;;;5044027;28;20290;-48
2022/05/28 01:27:19;;;;;;;34.47;12.40;;;9.20;99.90;;;;;;5030489;28;20704;-50
2022/05/28 01:29:49;;;;;;;34.40;12.13;;;9.00;99.90;;;;;;5030659;28;20259;-49
2022/05/28 01:32:16;;;;;;;53.77;19.97;;;9.20;99.90;;;;;;5043178;28;20218;-50
2022/05/28 01:34:43;;;;;;;42.47;25.30;;;8.90;99.90;;;;;;5038801;28;20311;-50
2022/05/28 01:37:10;;;;;;;37.60;12.93;;;9.00;99.90;;;;;;5031760;28;20220;-49
2022/05/28 01:39:37;;;;;;;36.23;11.10;;;9.10;99.90;;;;;;5030573;28;20607;-50
2022/05/28 01:42:06;;;;;;;42.93;13.57;;;9.10;99.90;;;;;;5024917;28;20212;-51
2022/05/28 01:44:32;;;;;;;41.20;12.13;;;9.00;99.90;;;;;;5025770;28;20186;-50
2022/05/28 01:46:58;;;;;;;40.53;15.90;;;9.00;99.90;;;;;;5029595;28;20219;-50
2022/05/28 01:49:24;;;;;;;43.20;12.23;;;;;;;;;;5029399;28;20201;-51
2022/05/28 01:51:55;;;;;;;39.63;13.87;;;9.00;99.90;;;;;;5049456;28;20231;-51
2022/05/28 01:54:25;;;;;;;27.63;17.37;;;9.00;99.90;;;;;;5035403;28;20242;-51
2022/05/28 01:56:52;;;;;;;44.40;20.43;;;9.00;99.90;;;;;;5010208;28;20307;-50
2022/05/28 01:59:27;;;;;;;56.73;38.60;;;8.90;99.90;;;;;;5023161;28;20208;-50
2022/05/28 02:01:55;;;;;;;50.57;39.83;;;8.90;99.90;;;;;;5030336;28;20702;-51
2022/05/28 02:04:21;;;;;;;34.77;13.13;;;;;;;;;;5046830;28;20317;-51
2022/05/28 02:06:47;;;;;;;38.17;12.60;;;8.80;99.90;;;;;;5034953;28;20212;-50
2022/05/28 02:09:17;;;;;;;56.97;40.97;;;9.00;99.90;;;;;;5028879;28;20257;-50
2022/05/28 02:12:12;;;;;;;54.47;37.20;;;8.90;99.90;;;;;;5029750;28;20204;-50
2022/05/28 02:14:54;;;;;;;38.97;35.93;;;8.90;99.90;;;;;;5030194;28;20234;-50
2022/05/28 02:17:35;;;;;;;47.43;42.57;;;8.90;99.90;;;;;;5017933;28;20231;-50
2022/05/28 02:20:09;;;;;;;80.63;56.17;;;9.10;99.90;;;;;;5029465;28;20291;-49
2022/05/28 02:22:58;;;;;;;64.27;49.13;;;8.80;99.90;;;;;;5030043;28;20621;-50
2022/05/28 02:26:00;;;;;;;82.77;51.67;;;8.80;99.90;;;;;;5016921;28;20217;-50
2022/05/28 02:28:28;;;;;;;52.03;46.17;;;9.00;99.90;;;;;;5028389;28;20235;-50
2022/05/28 02:31:02;;;;;;;45.63;11.53;;;8.70;99.90;;;;;;5020953;28;20293;-50
2022/05/28 02:33:29;;;;;;;38.73;10.40;;;9.10;99.90;;;;;;5031891;28;20314;-50
2022/05/28 02:35:55;;;;;;;24.67;22.60;;;;;;;;;;5033058;28;20722;-50
2022/05/28 02:38:21;;;;;;;34.17;30.67;;;;;;;;;;5029704;28;20196;-50
2022/05/28 02:40:47;;;;;;;46.17;41.93;;;;;;;;;;5029934;28;20295;-50
2022/05/28 02:43:13;;;;;;;35.43;17.47;;;8.80;99.90;;;;;;5029836;28;20228;-50
2022/05/28 02:45:40;;;;;;;111.50;77.43;;;8.90;99.90;;;;;;5028397;28;20224;-50
2022/05/28 02:48:07;;;;;;;81.27;55.70;;;8.90;99.90;;;;;;5025290;28;20306;-50
2022/05/28 02:50:33;;;;;;;34.73;23.30;;;8.80;99.90;;;;;;5029843;28;20207;-50
2022/05/28 02:52:59;;;;;;;56.53;29.50;;;8.90;99.90;;;;;;5041109;28;20600;-50
2022/05/28 02:55:25;;;;;;;67.70;38.43;;;;;;;;;;5029841;28;20266;-49
2022/05/28 02:57:51;;;;;;;83.43;53.33;;;;;;;;;;5027880;28;20265;-50
2022/05/28 03:00:17;;;;;;;66.83;42.40;;;8.90;99.90;;;;;;5032452;28;20306;-49
2022/05/28 03:02:43;;;;;;;105.37;75.97;;;;;;;;;;5032056;28;20184;-50
2022/05/28 03:05:12;;;;;;;148.60;93.03;;;8.90;99.90;;;;;;5040724;28;20179;-49
2022/05/28 03:07:38;;;;;;;73.70;57.97;;;;;;;;;;5042571;28;20781;-50
2022/05/28 03:10:04;;;;;;;108.17;70.50;;;9.00;99.90;;;;;;5035140;28;20224;-49
2022/05/28 03:12:29;;;;;;;124.20;86.13;;;9.10;99.90;;;;;;5032681;28;20403;-50
2022/05/28 03:14:55;;;;;;;85.47;61.27;;;;;;;;;;5032747;28;20299;-50
2022/05/28 03:17:21;;;;;;;67.60;37.63;;;;;;;;;;5028150;28;20204;-50
2022/05/28 03:19:47;;;;;;;103.07;73.33;;;;;;;;;;5016608;28;20705;-50
2022/05/28 03:22:13;;;;;;;82.80;54.27;;;9.00;99.90;;;;;;5033100;28;20569;-50
2022/05/28 03:24:39;;;;;;;132.73;85.93;;;;;;;;;;5033034;28;20223;-49
2022/05/28 03:27:04;;;;;;;124.33;84.57;;;9.20;99.90;;;;;;5032843;28;20298;-50
2022/05/28 03:29:30;;;;;;;120.80;81.43;;;;;;;;;;5031719;28;20516;-50
2022/05/28 03:31:56;;;;;;;64.57;32.00;;;;;;;;;;5032421;28;20685;-50
2022/05/28 03:34:22;;;;;;;36.30;10.90;;;;;;;;;;5041569;28;20215;-49
2022/05/28 03:36:48;;;;;;;27.60;8.70;;;9.40;99.90;;;;;;5052722;28;20230;-50
2022/05/28 03:39:13;;;;;;;57.07;25.80;;;9.30;99.90;;;;;;5052493;28;20215;-50
2022/05/28 03:41:40;;;;;;;138.13;88.83;;;;;;;;;;5053514;28;20214;-50
2022/05/28 03:44:06;;;;;;;65.17;54.70;;;9.40;99.90;;;;;;5037769;28;20208;-50
2022/05/28 03:46:34;;;;;;;101.63;73.37;;;9.60;99.90;;;;;;5032619;28;20212;-50
2022/05/28 03:49:05;;;;;;;57.50;17.47;;;9.30;99.90;;;;;;5032360;28;20525;-50
2022/05/28 03:51:31;;;;;;;33.43;6.30;;;;;;;;;;5038757;28;20235;-49
2022/05/28 03:53:57;;;;;;;54.53;10.03;;;;;;;;;;5051115;28;20580;-50
2022/05/28 03:56:31;;;;;;;44.87;8.33;;;9.50;99.90;;;;;;5032823;28;20649;-49
2022/05/28 03:58:56;;;;;;;44.10;8.37;;;9.60;99.90;;;;;;5025750;28;20313;-50
2022/05/28 04:01:22;;;;;;;48.27;8.77;;;;;;;;;;5032035;28;20756;-50
2022/05/28 04:03:48;;;;;;;38.90;7.47;;;10.00;99.90;;;;;;5032247;28;20220;-49
2022/05/28 04:06:13;;;;;;;42.27;8.33;;;9.60;99.90;;;;;;5032396;28;20200;-50
2022/05/28 04:08:40;;;;;;;31.10;6.10;;;9.40;99.90;;;;;;5032609;28;20204;-49
2022/05/28 04:11:05;;;;;;;30.57;6.07;;;9.80;99.90;;;;;;5031728;28;20216;-49
2022/05/28 04:13:31;;;;;;;29.83;5.70;;;;;;;;;;5031700;28;20200;-49
2022/05/28 04:15:57;;;;;;;43.03;8.33;;;9.80;99.90;;;;;;5031957;28;20262;-52
2022/05/28 04:18:23;;;;;;;30.97;6.00;;;9.50;99.90;;;;;;5031708;28;20252;-49
2022/05/28 04:20:49;;;;;;;30.87;6.20;;;;;;;;;;5031513;28;20624;-49
2022/05/28 04:23:15;;;;;;;33.43;6.50;;;9.40;99.90;;;;;;5032270;28;20183;-49
2022/05/28 04:25:41;;;;;;;37.80;7.23;;;;;;;;;;5031767;28;20208;-48
2022/05/28 04:28:08;;;;;;;45.50;9.13;;;;;;;;;;5031902;28;20220;-48
2022/05/28 04:30:34;;;;;;;30.87;6.13;;;9.80;99.90;;;;;;5031522;28;20224;-50
2022/05/28 04:32:59;;;;;;;35.23;7.10;;;9.40;99.90;;;;;;5050428;28;20215;-50
2022/05/28 04:35:25;;;;;;;35.40;6.77;;;;;;;;;;5043188;28;20625;-48
2022/05/28 04:37:51;;;;;;;21.37;4.60;;;9.80;99.90;;;;;;5031356;28;20220;-50
2022/05/28 04:40:16;;;;;;;45.43;8.97;;;9.70;99.90;;;;;;5031829;28;20208;-49
2022/05/28 04:42:42;;;;;;;24.60;5.10;;;9.80;99.90;;;;;;5031504;28;20608;-49
2022/05/28 04:45:08;;;;;;;41.90;8.03;;;8.10;99.90;;;;;;5046494;28;20223;-50
2022/05/28 04:47:34;;;;;;;47.00;9.23;;;;;;;;;;5051657;28;20743;-49
2022/05/28 04:49:59;;;;;;;40.73;7.90;;;9.50;99.90;;;;;;5036718;28;20240;-50
2022/05/28 04:52:25;;;;;;;38.10;7.47;;;;;;;;;;5031589;28;20216;-49
2022/05/28 04:54:51;;;;;;;29.60;5.93;;;9.90;99.90;;;;;;5031458;28;20718;-50
2022/05/28 04:57:17;;;;;;;38.70;7.50;;;;;;;;;;5031001;28;20207;-49
2022/05/28 04:59:42;;;;;;;30.30;6.50;;;;;;;;;;5031221;28;20224;-49
2022/05/28 05:02:08;;;;;;;9.03;2.37;;;9.90;99.90;;;;;;5031777;28;20177;-50
2022/05/28 05:04:34;;;;;;;33.67;6.87;;;9.60;99.90;;;;;;5030900;28;20215;-50
2022/05/28 05:07:00;;;;;;;46.87;9.13;;;10.00;99.90;;;;;;5030952;28;20708;-50
2022/05/28 05:09:26;;;;;;;49.93;9.83;;;;;;;;;;5031058;28;20215;-50
2022/05/28 05:11:52;;;;;;;32.90;6.53;;;9.60;99.50;;;;;;5031038;28;20270;-50
2022/05/28 05:14:17;;;;;;;45.80;9.07;;;;;;;;;;5031068;28;20537;-48
2022/05/28 05:16:43;;;;;;;35.17;7.17;;;;;;;;;;5026396;28;20680;-49
2022/05/28 05:19:10;;;;;;;25.10;5.23;;;;;;;;;;5030349;28;20216;-49
2022/05/28 05:21:36;;;;;;;26.53;5.50;;;;;;;;;;5033097;28;20743;-49
2022/05/28 05:24:01;;;;;;;17.97;4.00;;;10.00;90.20;;;;;;5031181;28;20501;-49
2022/05/28 05:26:27;;;;;;;29.03;5.90;;;10.50;73.90;;;;;;5013697;28;20269;-50
2022/05/28 05:28:54;;;;;;;46.90;9.23;;;;;;;;;;5022785;28;20274;-50
2022/05/28 05:31:19;;;;;;;45.80;8.90;;;10.50;84.70;;;;;;5030454;28;20227;-50
2022/05/28 05:33:45;;;;;;;53.47;10.53;;;10.50;71.40;;;;;;5030241;28;20220;-50
2022/05/28 05:36:11;;;;;;;34.47;6.83;;;10.70;68.30;;;;;;5015994;28;20235;-50
2022/05/28 05:38:38;;;;;;;31.23;6.30;;;;;;;;;;5020623;28;20200;-51
2022/05/28 05:41:04;;;;;;;78.87;14.60;;;;;;;;;;5012763;28;20185;-51
2022/05/28 05:43:30;;;;;;;97.13;17.77;;;;;;;;;;5011273;28;20213;-52
2022/05/28 05:45:58;;;;;;;79.33;15.10;;;10.30;99.90;;;;;;5014075;28;20220;-51
2022/05/28 05:48:24;;;;;;;125.93;22.87;;;;;;;;;;5009470;28;20241;-50
2022/05/28 05:50:50;;;;;;;115.90;21.23;;;9.90;99.90;;;;;;4993938;28;20255;-52
2022/05/28 05:53:16;;;;;;;105.50;19.67;;;;;;;;;;4993568;28;20193;-50
2022/05/28 05:55:42;;;;;;;134.23;23.40;;;;;;;;;;4999378;28;20323;-50
2022/05/28 05:58:08;;;;;;;220.73;41.10;;;10.30;99.90;;;;;;4983304;28;20259;-51
2022/05/28 06:00:34;;;;;;;154.13;27.03;;;;;;;;;;4981379;28;20782;-50
2022/05/28 06:03:00;;;;;;;116.10;21.60;;;;;;;;;;4994501;28;20355;-50
2022/05/28 06:05:26;;;;;;;93.90;17.57;;;;;;;;;;4997566;28;20199;-51
2022/05/28 06:07:51;;;;;;;142.17;26.27;;;;;;;;;;4996250;28;20906;-51
2022/05/28 06:10:17;;;;;;;65.13;12.60;;;;;;;;;;4997813;28;20243;-52
2022/05/28 06:12:43;;;;;;;88.70;16.30;;;9.80;99.90;;;;;;5006414;28;20914;-51
2022/05/28 06:15:09;;;;;;;126.43;23.17;;;10.00;99.90;;;;;;4995269;28;20517;-51
2022/05/28 06:17:36;;;;;;;107.27;19.93;;;;;;;;;;4995890;28;20211;-50
2022/05/28 06:20:04;;;;;;;190.40;34.43;;;10.20;99.90;;;;;;4992999;28;20173;-51
2022/05/28 06:22:30;;;;;;;99.80;18.93;;;;;;;;;;4998453;28;20312;-51
2022/05/28 06:24:56;;;;;;;129.90;24.97;;;;;;;;;;4993307;28;20220;-50
2022/05/28 06:27:22;;;;;;;124.20;22.83;;;10.50;99.90;;;;;;4994345;28;20617;-52
2022/05/28 06:29:48;;;;;;;111.37;20.73;;;;;;;;;;4995843;28;20223;-50
2022/05/28 06:32:13;;;;;;;109.07;20.07;;;;;;;;;;5004346;28;20183;-50
2022/05/28 06:34:39;;;;;;;111.60;20.47;;;;;;;;;;5007383;28;20220;-50
2022/05/28 06:37:09;;;;;;;172.33;32.43;;;10.40;99.90;;;;;;5000453;28;20231;-50
2022/05/28 06:39:36;;;;;;;114.60;21.13;;;10.80;99.90;;;;;;4995452;28;20216;-51
2022/05/28 06:42:03;;;;;;;116.67;21.77;;;10.60;99.90;;;;;;4996651;28;20244;-51
2022/05/28 06:44:29;;;;;;;102.40;17.80;;;11.20;77.30;;;;;;5007120;28;20208;-52
2022/05/28 06:46:55;;;;;;;119.07;22.10;;;;;;;;;;5006409;28;20272;-52
2022/05/28 06:49:21;;;;;;;133.23;22.63;;;;;;;;;;4999763;28;20693;-52
2022/05/28 06:51:48;;;;;;;77.93;14.50;;;11.10;40.80;;;;;;5015028;28;20310;-51
2022/05/28 06:54:14;;;;;;;73.47;14.03;;;;;;;;;;5009236;28;20220;-50
2022/05/28 06:56:39;;;;;;;155.63;27.67;;;;;;;;;;5011406;28;20665;-51
2022/05/28 06:59:05;;;;;;;92.83;18.00;;;11.20;37.80;;;;;;5005767;28;20204;-52
2022/05/28 07:01:31;;;;;;;46.33;9.03;;;;;;;;;;5011984;28;20216;-51
2022/05/28 07:03:57;;;;;;;77.23;15.17;;;;;;;;;;5017662;28;20217;-50
2022/05/28 07:06:23;;;;;;;42.20;8.73;;;11.30;10.10;;;;;;5018123;28;20298;-50
2022/05/28 07:08:49;;;;;;;92.90;18.60;;;;;;;;;;5007507;28;21043;-51
2022/05/28 07:11:15;;;;;;;97.27;19.37;;;;;;;;;;5007325;28;20211;-52
2022/05/28 07:13:41;;;;;;;67.43;12.77;;;11.30;43.30;;;;;;5011644;28;20256;-52
2022/05/28 07:16:08;;;;;;;37.73;7.60;;;11.70;22.90;;;;;;5014614;28;20295;-52
2022/05/28 07:18:38;;;;;;;51.13;9.73;;;11.70;1.00;;;;;;5022547;28;20242;-51
2022/05/28 07:21:04;;;;;;;69.93;12.33;;;;;;;;;;5008161;28;20291;-50
2022/05/28 07:23:30;;;;;;;56.93;9.97;;;11.70;1.00;;;;;;5009061;28;20181;-52
2022/05/28 07:26:06;;;;;;;75.37;12.87;;;11.70;1.00;;;;;;5008171;28;20189;-52
2022/05/28 07:28:34;;;;;;;73.50;12.03;;;11.70;1.00;;;;;;5010316;28;20242;-51
2022/05/28 07:31:05;;;;;;;99.73;16.93;;;11.70;1.00;;;;;;5005341;28;20755;-52
2022/05/28 07:33:33;;;;;;;191.97;31.27;;;11.80;1.00;;;;;;4999028;28;20217;-51
2022/05/28 07:36:00;;;;;;;76.73;13.43;;;11.80;1.00;;;;;;5004868;28;20555;-51
2022/05/28 07:38:28;;;;;;;64.60;10.93;;;11.90;1.00;;;;;;5010879;28;20355;-51
2022/05/28 07:40:54;;;;;;;43.07;7.77;;;;;;;;;;5018322;28;20299;-52
2022/05/28 07:43:21;;;;;;;79.67;13.10;;;12.20;1.00;;;;;;5012423;28;20219;-52
2022/05/28 07:45:47;;;;;;;51.57;8.93;;;;;;;;;;5010972;28;20308;-50
2022/05/28 07:48:14;;;;;;;86.87;14.53;;;11.90;1.00;;;;;;5014166;28;20300;-50
2022/05/28 07:50:41;;;;;;;43.40;7.43;;;;;;;;;;5012999;28;20212;-50
2022/05/28 07:53:07;;;;;;;88.87;14.83;;;;;;;;;;5009869;28;20180;-51
2022/05/28 07:55:33;;;;;;;60.93;9.87;;;12.10;1.00;;;;;;5012948;28;20282;-52
2022/05/28 07:58:05;;;;;;;99.10;15.97;;;11.90;99.90;;;;;;5008852;28;20235;-51
2022/05/28 08:00:30;;;;;;;65.70;10.90;;;;;;;;;;5007185;28;20558;-51
2022/05/28 08:02:56;;;;;;;60.07;10.37;;;;;;;;;;5005911;28;20228;-51
2022/05/28 08:05:22;;;;;;;70.67;11.97;;;;;;;;;;5010433;28;20562;-52
2022/05/28 08:07:49;;;;;;;71.23;12.07;;;;;;;;;;5008486;28;20316;-52
2022/05/28 08:10:15;;;;;;;228.80;37.87;;;;;;;;;;5002670;28;20244;-51
2022/05/28 08:12:41;;;;;;;88.43;14.60;;;;;;;;;;5008858;28;20390;-51
2022/05/28 08:15:07;;;;;;;112.37;18.27;;;12.30;1.00;;;;;;5005770;28;20280;-51
2022/05/28 08:17:33;;;;;;;72.90;12.47;;;;;;;;;;5001298;28;20200;-51
2022/05/28 08:19:59;;;;;;;85.03;14.37;;;;;;;;;;5010915;28;20192;-52
2022/05/28 08:25:10;;;;;;;107.80;17.57;;;;;;;;;;5007231;28;21177;-51
2022/05/28 08:27:37;;;;;;;72.97;11.70;;;12.50;1.00;;;;;;5011549;28;20300;-51
2022/05/28 08:30:04;;;;;;;89.57;14.60;;;12.50;1.00;;;;;;5007982;28;20224;-52
2022/05/28 08:32:30;;;;;;;86.77;14.37;;;12.40;1.00;;;;;;5001893;28;21398;-52
2022/05/28 08:34:56;;;;;;;49.83;8.60;;;;;;;;;;5004238;28;20264;-51
2022/05/28 08:37:22;;;;;;;147.70;23.67;;;;;;;;;;4999194;28;20557;-51
2022/05/28 08:39:48;;;;;;;67.57;11.00;;;;;;;;;;4997681;28;20212;-51
2022/05/28 08:42:14;;;;;;;29.00;5.43;;;12.50;99.90;;;;;;5014471;28;20334;-51
2022/05/28 08:44:42;;;;;;;76.17;12.73;;;12.50;1.00;;;;;;5010117;28;20239;-52
2022/05/28 08:47:07;;;;;;;104.17;16.97;;;;;;;;;;5000912;28;20201;-52
2022/05/28 08:49:37;;;;;;;118.27;18.63;;;12.50;99.90;;;;;;5004234;28;20672;-52
2022/05/28 08:52:10;;;;;;;131.83;20.77;;;12.80;99.90;;;;;;4994848;28;20324;-52
2022/05/28 08:54:56;;;;;;;89.13;13.83;;;13.00;99.90;;;;;;4997080;28;20299;-52
2022/05/28 08:57:28;;;;;;;75.63;12.23;;;12.80;64.10;;;;;;5011713;28;20734;-52
2022/05/28 08:59:59;;;;;;;54.20;8.97;;;12.50;43.60;;;;;;5014419;28;20220;-52
2022/05/28 09:02:42;;;;;;;110.50;17.53;;;12.70;15.50;;;;;;4995400;28;20643;-52
2022/05/28 09:05:22;;;;;;;107.57;16.40;;;12.50;99.90;;;;;;4997461;28;20265;-52
2022/05/28 09:07:48;;;;;;;85.87;13.53;;;;;;;;;;5004674;28;20261;-52
2022/05/28 09:10:14;;;;;;;99.63;16.20;;;12.60;99.90;;;;;;4999297;28;20787;-52
2022/05/28 09:12:47;;;;;;;97.50;15.67;;;13.00;99.90;;;;;;5000976;28;20213;-52
2022/05/28 09:15:13;;;;;;;128.27;20.53;;;13.30;99.90;;;;;;4997473;28;20645;-52
2022/05/28 09:17:48;;;;;;;65.73;11.13;;;13.10;1.00;;;;;;5001873;28;20254;-52
2022/05/28 09:20:21;;;;;;;80.47;13.23;;;13.40;68.90;;;;;;5010558;28;20196;-53
2022/05/28 09:22:47;;;;;;;79.47;13.23;;;;;;;;;;5002598;28;20335;-53
2022/05/28 09:25:16;;;;;;;70.17;11.93;;;13.20;1.00;;;;;;5008800;28;20311;-52
2022/05/28 09:27:59;;;;;;;69.87;11.77;;;13.20;99.90;;;;;;5019199;28;20740;-52
2022/05/28 09:30:44;;;;;;;61.43;10.67;;;13.30;99.90;;;;;;5010716;28;20256;-52
2022/05/28 09:33:20;;;;;;;59.27;10.40;;;13.50;99.90;;;;;;5015964;28;20574;-52
2022/05/28 09:35:57;;;;;;;60.80;10.90;;;13.50;1.00;;;;;;5014532;28;20632;-53
2022/05/28 09:38:45;;;;;;;110.00;18.33;;;13.80;99.90;;;;;;5004400;28;20217;-50
2022/05/28 09:41:35;;;;;;;94.22;16.05;;;13.80;1.00;;;;;;5002277;28;20212;-52
2022/05/28 09:44:33;;;;;;;78.80;13.80;;;13.80;1.00;;;;;;4993853;28;20273;-51
2022/05/28 09:47:13;;;;;;;106.20;18.03;;;13.60;8.60;;;;;;4997686;28;20216;-50
2022/05/28 09:49:50;;;;;;;72.90;12.00;;;13.90;1.00;;;;;;4998167;28;20220;-52
2022/05/28 09:54:16;;;;;;;126.47;20.60;;;14.20;1.00;;;;;;4995582;28;20235;-53
2022/05/28 09:55:23;;;;;;;48.73;8.77;;;14.10;1.00;;;;;;5015102;28;20296;-52
2022/05/28 09:58:01;;;;;;;64.47;11.30;;;14.40;1.00;;;;;;5007961;28;20216;-53
2022/05/28 10:00:27;;;;;;;31.43;5.77;;;;;;;;;;5016928;28;20735;-52
2022/05/28 10:05:51;;;;;;;56.30;10.10;;;14.10;1.00;;;;;;5013155;28;20211;-52
2022/05/28 10:08:16;;;;;;;57.80;10.13;;;14.00;72.00;;;;;;5016990;28;20219;-52
2022/05/28 10:10:53;;;;;;;44.63;7.97;;;14.40;1.00;;;;;;5018731;28;20228;-52
2022/05/28 10:13:23;;;;;;;85.25;14.45;;;14.50;1.00;;;;;;5008207;28;20216;-53
2022/05/28 10:15:59;;;;;;;42.05;7.53;;;14.50;1.00;;;;;;5017372;28;20227;-51
2022/05/28 10:18:41;;;;;;;84.03;14.10;;;14.40;1.00;;;;;;5011020;28;20223;-52
2022/05/28 10:21:16;;;;;;;45.20;8.00;;;14.40;1.00;;;;;;5011984;28;20696;-52
2022/05/28 10:23:51;;;;;;;100.10;17.07;;;14.20;1.00;;;;;;5013598;28;20728;-53
2022/05/28 10:26:23;;;;;;;22.73;4.33;;;14.00;99.90;;;;;;5010739;28;20187;-52
2022/05/28 10:28:52;;;;;;;119.57;19.95;;;14.60;1.00;;;;;;4999976;28;20318;-52
2022/05/28 10:31:31;;;;;;;146.02;24.88;;;14.40;7.60;;;;;;4994990;28;20231;-52
2022/05/28 10:33:57;;;;;;;56.67;10.37;;;14.90;1.00;;;;;;5000733;28;20209;-52
2022/05/28 10:36:25;;;;;;;127.03;22.55;;;14.70;1.00;;;;;;4999662;28;20228;-53
2022/05/28 10:38:51;;;;;;;113.80;20.50;;;;;;;;;;5000724;28;20227;-52
2022/05/28 10:41:26;;;;;;;72.57;13.97;;;14.70;1.00;;;;;;5006192;28;20660;-53
2022/05/28 10:43:52;;;;;;;78.93;14.50;;;14.80;1.00;;;;;;5003825;28;20496;-52
2022/05/28 10:46:55;;;;;;;83.97;15.67;;;14.70;1.00;;;;;;5005452;28;20628;-53
2022/05/28 10:49:48;;;;;;;62.73;11.57;;;14.60;1.00;;;;;;4999300;28;20212;-53
2022/05/28 10:52:28;;;;;;;106.75;19.50;;;14.50;1.00;;;;;;5004438;28;20237;-50
2022/05/28 10:55:09;;;;;;;119.33;21.17;;;14.90;99.90;;;;;;4993382;28;20330;-50
2022/05/28 10:57:58;;;;;;;111.88;20.13;;;14.50;1.00;;;;;;5002482;28;20223;-51
2022/05/28 11:00:46;;;;;;;83.15;15.65;;;14.90;99.90;;;;;;4999615;28;20795;-53
2022/05/28 11:04:10;;;;;;;133.15;25.05;;;14.80;1.00;;;;;;5008167;28;20307;-48
2022/05/28 11:07:10;;;;;;;143.85;25.27;;;14.90;99.90;;;;;;4944911;28;20214;-51
2022/05/28 11:10:00;;;;;;;97.00;17.45;;;15.30;99.90;;;;;;5003197;28;20842;-52
2022/05/28 11:12:56;;;;;;;123.68;23.75;;;15.20;99.90;;;;;;4998421;28;20243;-51
2022/05/28 11:16:02;;;;;;;93.75;19.40;;;15.20;99.90;;;;;;4998525;28;20224;-51
2022/05/28 11:18:31;;;;;;;127.55;25.35;;;15.40;99.90;;;;;;4999793;28;20870;-50
2022/05/28 11:21:18;;;;;;;127.43;24.92;;;15.20;99.90;;;;;;4997057;28;20673;-51
2022/05/28 11:24:09;;;;;;;60.42;11.75;;;15.00;99.90;;;;;;5012253;28;20177;-51
2022/05/28 11:26:58;;;;;;;84.03;16.23;;;14.90;99.90;;;;;;5010649;28;20193;-51
2022/05/28 11:29:26;;;;;;;81.40;16.93;;;;;;;;;;5003483;28;20850;-53
2022/05/28 11:32:01;;;;;;;141.40;27.00;;;15.10;99.90;;;;;;4996954;28;20697;-53
2022/05/28 11:34:33;;;;;;;118.88;23.20;;;14.50;1.00;;;;;;4998861;28;20213;-53
2022/05/28 11:37:06;;;;;;;94.32;19.50;;;15.30;1.00;;;;;;4997642;28;20724;-53
2022/05/28 11:39:57;;;;;;;117.13;23.40;;;15.20;1.00;;;;;;5000362;28;20227;-51
2022/05/28 11:42:44;;;;;;;91.80;18.98;;;15.40;99.90;;;;;;5004426;28;20246;-51
2022/05/28 11:45:18;;;;;;;99.88;20.38;;;15.80;99.90;;;;;;5004160;28;20216;-52
2022/05/28 11:47:53;;;;;;;80.13;16.92;;;16.10;1.00;;;;;;5016429;28;20266;-51
2022/05/28 11:53:52;;;;;;;93.50;19.73;;;16.10;99.90;;;;;;5003321;28;20232;-51
2022/05/28 11:56:28;;;;;;;75.90;15.88;;;15.80;1.00;;;;;;5007393;28;20373;-51
2022/05/28 11:59:17;;;;;;;109.63;23.33;;;15.60;1.00;;;;;;4999878;28;20228;-51
2022/05/28 12:01:51;;;;;;;139.77;30.27;;;14.80;1.00;;;;;;4998488;28;20608;-51
2022/05/28 12:04:17;;;;;;;66.28;15.07;;;16.30;1.00;;;;;;5005602;28;20808;-51
2022/05/28 12:07:06;;;;;;;111.22;23.25;;;15.90;7.50;;;;;;5008279;28;20213;-51
2022/05/28 12:09:35;;;;;;;124.95;26.08;;;16.20;99.90;;;;;;4999686;28;20209;-51
2022/05/28 12:12:26;;;;;;;155.23;33.72;;;16.30;99.90;;;;;;5001483;28;20236;-51
2022/05/28 12:15:20;;;;;;;53.35;11.93;;;16.40;99.90;;;;;;5010395;28;20215;-51
2022/05/28 12:18:23;;;;;;;116.47;24.55;;;16.60;99.90;;;;;;5001490;28;20258;-51
2022/05/28 12:20:59;;;;;;;99.72;21.33;;;16.10;46.40;;;;;;5001757;28;20774;-51
2022/05/28 12:23:45;;;;;;;76.13;15.82;;;16.00;99.90;;;;;;5001145;28;20267;-51
2022/05/28 12:26:46;;;;;;;59.40;12.95;;;15.60;99.90;;;;;;5003456;28;20752;-51
2022/05/28 12:29:29;;;;;;;96.97;19.95;;;15.00;1.00;;;;;;5011732;28;20263;-51
2022/05/28 12:31:55;;;;;;;116.68;23.90;;;14.20;1.00;;;;;;5004759;28;20220;-51
2022/05/28 12:34:24;;;;;;;69.00;14.50;;;14.20;1.00;;;;;;5006449;28;20217;-52
2022/05/28 12:36:54;;;;;;;108.00;22.07;;;14.60;1.00;;;;;;5009822;28;20355;-52
2022/05/28 12:39:42;;;;;;;132.10;26.48;;;14.30;1.00;;;;;;5004174;28;20644;-51
2022/05/28 12:42:20;;;;;;;125.18;25.00;;;14.40;1.00;;;;;;5005461;28;20299;-52
2022/05/28 12:44:50;;;;;;;200.07;38.40;;;16.10;99.90;;;;;;4997347;28;20219;-52
2022/05/28 12:47:27;;;;;;;122.20;24.38;;;15.10;99.90;;;;;;5000631;28;20205;-52
2022/05/28 12:50:02;;;;;;;62.97;13.75;;;15.60;1.00;;;;;;5003472;28;20743;-52
2022/05/28 12:53:05;;;;;;;69.57;14.85;;;15.90;1.00;;;;;;5004025;28;20343;-52
2022/05/28 12:55:36;;;;;;;102.72;20.50;;;15.90;1.00;;;;;;4999851;28;20243;-52
2022/05/28 12:58:26;;;;;;;93.28;19.55;;;15.80;99.90;;;;;;5003205;28;20216;-52
2022/05/28 13:00:59;;;;;;;89.35;19.50;;;15.60;99.90;;;;;;5000309;28;20242;-51
2022/05/28 13:03:34;;;;;;;144.93;30.65;;;15.50;1.00;;;;;;5006386;28;20220;-51
2022/05/28 13:06:40;;;;;;;94.38;20.27;;;15.60;1.00;;;;;;5007449;28;20223;-52
2022/05/28 13:09:08;;;;;;;92.57;19.58;;;15.60;1.00;;;;;;4998292;28;20220;-52
2022/05/28 13:11:55;;;;;;;189.13;38.70;;;15.70;1.00;;;;;;4997643;28;20232;-52
2022/05/28 13:14:32;;;;;;;131.77;26.75;;;16.00;1.00;;;;;;4996365;28;20723;-52
2022/05/28 13:17:19;;;;;;;87.15;18.88;;;16.40;99.90;;;;;;5012428;28;20223;-52
2022/05/28 13:19:54;;;;;;;80.60;19.58;;;16.50;99.90;;;;;;5006335;28;21489;-52
2022/05/28 13:22:55;;;;;;;81.10;20.50;;;16.90;99.90;;;;;;5008295;28;20216;-52
2022/05/28 13:25:48;;;;;;;79.38;21.10;;;17.20;99.90;;;;;;4999459;28;20669;-52
2022/05/28 13:28:46;;;;;;;53.20;18.63;;;17.80;99.90;;;;;;5004459;28;20540;-52
2022/05/28 13:31:15;;;;;;;122.57;51.88;;;17.60;99.90;;;;;;5011504;28;20247;-53
2022/05/28 13:33:41;;;;;;;84.55;46.95;;;;;;;;;;5008411;28;20213;-52